Time;durP1;ratioP1;P1;durP2;ratioP2;P2;SDS_P1;SDS_P2;PMS_P1;PMS_P2;Temp;Humidity;BMP_temperature;BMP_pressure;BME280_temperature;BME280_humidity;BME280_pressure;Samples;Min_cycle;Max_cycle;Signal;HPM_P1;HPM_P2
2022/04/24 00:01:33;;;;;;;15.02;12.48;;;10.30;99.90;;;9.40;100.00;95701.84;5082668;28;20068;-73
2022/04/24 00:04:00;;;;;;;14.35;12.82;;;10.30;99.90;;;9.37;100.00;95702.88;5082666;28;20090;-73
2022/04/24 00:06:27;;;;;;;15.50;12.90;;;10.20;99.90;;;9.40;100.00;95700.06;5083996;28;20044;-73
2022/04/24 00:08:55;;;;;;;14.35;12.85;;;10.20;99.90;;;9.35;100.00;95696.13;5084435;28;20325;-73
2022/04/24 00:11:23;;;;;;;15.02;12.77;;;10.20;99.90;;;9.31;100.00;95692.91;5096227;27;20055;-73
2022/04/24 00:13:50;;;;;;;14.65;12.48;;;10.10;99.90;;;9.24;100.00;95696.00;5079720;28;20128;-73
2022/04/24 00:16:17;;;;;;;16.45;13.13;;;10.10;99.90;;;9.13;100.00;95691.56;5079153;28;20050;-73
2022/04/24 00:18:44;;;;;;;15.35;13.57;;;10.00;99.90;;;9.09;100.00;95687.53;5065607;28;20063;-73
2022/04/24 00:21:11;;;;;;;14.68;12.88;;;9.90;99.90;;;9.11;100.00;95690.84;5080192;28;20050;-73
2022/04/24 00:23:38;;;;;;;15.02;13.13;;;9.90;99.90;;;9.04;100.00;95684.41;5077540;28;20112;-73
2022/04/24 00:26:05;;;;;;;16.92;14.27;;;9.90;99.90;;;9.06;100.00;95691.16;5077768;28;20481;-73
2022/04/24 00:28:32;;;;;;;18.02;13.38;;;9.80;99.90;;;9.05;100.00;95691.25;5078605;28;20131;-73
2022/04/24 00:30:59;;;;;;;16.80;13.85;;;9.90;99.90;;;9.07;100.00;95697.16;5076373;28;20143;-72
2022/04/24 00:33:26;;;;;;;14.23;12.73;;;9.80;99.90;;;9.10;100.00;95699.53;5079939;28;20042;-73
2022/04/24 00:35:53;;;;;;;14.13;12.57;;;9.80;99.90;;;9.08;100.00;95706.59;5073042;28;20556;-73
2022/04/24 00:38:20;;;;;;;14.50;12.88;;;9.90;99.90;;;8.99;100.00;95695.91;5078730;28;20078;-73
2022/04/24 00:40:47;;;;;;;14.63;12.95;;;9.80;99.90;;;8.95;100.00;95691.84;5077488;28;20131;-73
2022/04/24 00:43:15;;;;;;;15.75;14.05;;;9.80;99.90;;;8.92;100.00;95696.41;5082039;28;20177;-73
2022/04/24 00:45:42;;;;;;;15.43;13.00;;;9.80;99.90;;;8.91;100.00;95692.16;5078069;28;20100;-73
2022/04/24 00:48:09;;;;;;;14.93;13.13;;;9.70;99.90;;;8.99;100.00;95682.97;5074933;28;20062;-73
2022/04/24 00:50:56;;;;;;;14.90;13.35;;;9.70;99.90;;;8.90;100.00;95687.94;5073333;28;20135;-73
2022/04/24 00:53:23;;;;;;;14.85;13.13;;;9.70;99.90;;;8.96;100.00;95696.13;5075860;28;20514;-72
2022/04/24 00:55:51;;;;;;;17.25;12.88;;;9.70;99.90;;;8.94;100.00;95695.38;5074947;28;20547;-72
2022/04/24 00:58:19;;;;;;;14.82;13.05;;;9.70;99.90;;;8.99;100.00;95689.91;5094006;28;20134;-72
2022/04/24 01:00:45;;;;;;;15.68;12.98;;;9.80;99.90;;;9.02;100.00;95686.28;5076886;28;20153;-73
2022/04/24 01:03:15;;;;;;;13.40;12.00;;;9.80;99.90;;;9.04;100.00;95685.25;5078220;28;20047;-73
2022/04/24 01:05:42;;;;;;;15.95;13.38;;;9.80;99.90;;;9.01;100.00;95693.22;5080155;28;20123;-73
2022/04/24 01:08:09;;;;;;;14.25;12.32;;;9.80;99.90;;;9.04;100.00;95694.78;5071063;28;20626;-73
2022/04/24 01:10:38;;;;;;;18.73;12.32;;;9.80;99.90;;;9.04;100.00;95690.41;5068826;28;20131;-73
2022/04/24 01:13:06;;;;;;;15.07;13.45;;;9.90;99.90;;;9.05;100.00;95680.88;5078490;28;20056;-73
2022/04/24 01:15:33;;;;;;;16.30;12.45;;;9.90;99.90;;;9.13;100.00;95681.22;5081340;28;20054;-73
2022/04/24 01:18:01;;;;;;;14.57;12.98;;;9.90;99.90;;;9.18;100.00;95674.78;5081008;28;20050;-73
2022/04/24 01:20:28;;;;;;;14.55;13.05;;;10.00;99.90;;;9.09;100.00;95672.00;5080854;28;20079;-73
2022/04/24 01:22:56;;;;;;;13.75;12.18;;;10.00;99.90;;;9.13;100.00;95668.28;5079074;28;20080;-73
2022/04/24 01:25:23;;;;;;;16.38;12.85;;;10.00;99.90;;;9.12;100.00;95671.78;5081555;28;20128;-73
2022/04/24 01:27:50;;;;;;;16.42;12.77;;;10.00;99.90;;;9.15;100.00;95667.25;5080657;28;20549;-73
2022/04/24 01:30:18;;;;;;;15.52;12.85;;;10.00;99.90;;;9.13;100.00;95671.69;5083483;28;20084;-73
2022/04/24 01:32:45;;;;;;;14.23;11.75;;;10.00;99.90;;;9.17;100.00;95655.03;5081121;28;20139;-73
2022/04/24 01:35:13;;;;;;;14.60;12.32;;;10.00;99.90;;;9.19;100.00;95660.94;5083548;28;20475;-72
2022/04/24 01:37:44;;;;;;;18.88;12.45;;;10.00;99.90;;;9.20;100.00;95661.75;5080469;28;20072;-73
2022/04/24 01:40:11;;;;;;;13.50;11.98;;;10.00;99.90;;;9.25;100.00;95671.78;5081884;28;21527;-73
2022/04/24 01:42:38;;;;;;;13.75;11.57;;;10.00;99.90;;;9.33;100.00;95664.34;5080858;28;20163;-73
2022/04/24 01:45:06;;;;;;;13.85;12.35;;;10.10;99.90;;;9.35;100.00;95665.91;5081409;28;20043;-73
2022/04/24 01:47:33;;;;;;;16.25;12.02;;;10.10;99.90;;;9.32;100.00;95667.84;5083650;28;20170;-73
2022/04/24 01:50:00;;;;;;;13.68;11.18;;;10.20;99.90;;;9.29;100.00;95666.31;5063443;28;20464;-73
2022/04/24 01:52:27;;;;;;;13.95;11.05;;;10.10;99.90;;;9.36;100.00;95664.94;5080372;28;20704;-73
2022/04/24 01:54:54;;;;;;;14.07;10.93;;;10.20;99.90;;;9.46;100.00;95669.50;5079576;28;20132;-73
2022/04/24 01:57:21;;;;;;;13.52;10.93;;;10.20;99.90;;;9.55;100.00;95674.88;5081465;28;20083;-72
2022/04/24 01:59:48;;;;;;;13.40;10.93;;;10.20;99.90;;;9.48;100.00;95675.41;5086110;28;20425;-73
2022/04/24 02:02:15;;;;;;;14.45;10.55;;;10.20;99.90;;;9.53;100.00;95681.09;5082317;28;20056;-73
2022/04/24 02:04:42;;;;;;;11.82;9.63;;;10.30;99.90;;;9.63;100.00;95684.72;5083873;28;20087;-73
2022/04/24 02:07:11;;;;;;;12.07;9.45;;;10.30;99.90;;;9.79;100.00;95684.47;5082826;28;20588;-72
2022/04/24 02:09:40;;;;;;;11.00;8.75;;;10.40;99.90;;;9.82;100.00;95690.25;5079839;28;20040;-72
2022/04/24 02:12:07;;;;;;;13.68;9.60;;;10.40;99.90;;;9.82;100.00;95692.84;5078456;28;20049;-72
2022/04/24 02:14:35;;;;;;;11.13;9.45;;;10.50;99.90;;;9.82;100.00;95702.38;5082382;28;20159;-72
2022/04/24 02:17:02;;;;;;;11.38;10.15;;;10.50;99.90;;;9.79;100.00;95706.03;5079760;28;20075;-72
2022/04/24 02:19:29;;;;;;;12.98;10.27;;;10.50;99.90;;;9.80;100.00;95710.25;5084781;28;20130;-72
2022/04/24 02:21:57;;;;;;;11.55;8.25;;;10.50;99.90;;;9.95;100.00;95705.78;5078484;28;20040;-72
2022/04/24 02:24:24;;;;;;;13.95;10.23;;;10.60;99.90;;;9.95;100.00;95718.75;5082095;28;20075;-72
2022/04/24 02:26:52;;;;;;;13.18;9.27;;;10.60;99.90;;;9.99;100.00;95724.53;5078207;28;20051;-72
2022/04/24 02:29:19;;;;;;;11.43;9.23;;;10.70;99.90;;;9.97;100.00;95732.44;5081616;28;20082;-73
2022/04/24 02:31:46;;;;;;;10.18;8.07;;;10.70;99.90;;;10.09;100.00;95732.50;5081067;28;20044;-73
2022/04/24 02:34:14;;;;;;;10.52;8.98;;;10.70;99.90;;;10.13;100.00;95729.59;5080223;28;20059;-72
2022/04/24 02:36:41;;;;;;;10.48;8.40;;;10.70;99.90;;;10.20;100.00;95738.59;5081869;28;20552;-73
2022/04/24 02:39:08;;;;;;;11.13;8.55;;;10.80;99.90;;;10.16;100.00;95731.97;5079977;28;20591;-72
2022/04/24 02:41:35;;;;;;;10.25;8.48;;;10.80;99.90;;;10.12;100.00;95738.28;5075958;28;20079;-73
2022/04/24 02:44:03;;;;;;;11.27;8.20;;;10.80;99.90;;;10.21;100.00;95740.25;5082811;28;20072;-73
2022/04/24 02:46:30;;;;;;;11.55;8.70;;;10.80;99.90;;;10.22;100.00;95738.50;5080055;28;20715;-72
2022/04/24 02:48:57;;;;;;;10.98;8.65;;;10.80;99.90;;;10.31;100.00;95735.28;5082841;28;20123;-73
2022/04/24 02:51:24;;;;;;;11.20;8.82;;;10.90;99.90;;;10.22;100.00;95736.72;5080585;28;20211;-73
2022/04/24 02:53:52;;;;;;;12.15;9.80;;;10.90;99.90;;;10.07;100.00;95747.34;5080042;28;20044;-73
2022/04/24 02:56:19;;;;;;;11.18;9.40;;;10.80;99.90;;;10.14;100.00;95740.78;5074614;28;20127;-72
2022/04/24 02:58:46;;;;;;;11.45;9.48;;;10.80;99.90;;;10.20;100.00;95735.19;5079011;28;20043;-72
2022/04/24 03:01:13;;;;;;;10.52;8.15;;;10.90;99.90;;;10.20;100.00;95738.59;5081822;28;20524;-72
2022/04/24 03:03:42;;;;;;;11.52;8.88;;;10.90;99.90;;;10.22;100.00;95741.91;5080005;28;20788;-73
2022/04/24 03:06:09;;;;;;;9.80;8.07;;;10.90;99.90;;;10.31;100.00;95737.88;5078237;28;20058;-73
2022/04/24 03:08:37;;;;;;;9.82;8.23;;;10.90;99.90;;;10.25;100.00;95743.44;5080643;28;20083;-72
2022/04/24 03:11:05;;;;;;;10.02;8.30;;;11.00;99.90;;;10.30;100.00;95738.78;5077652;28;20072;-73
2022/04/24 03:13:32;;;;;;;9.80;8.80;;;10.90;99.90;;;10.27;100.00;95742.41;5080796;28;20086;-73
2022/04/24 03:15:59;;;;;;;10.32;7.88;;;10.90;99.90;;;10.35;100.00;95734.09;5079798;28;20048;-73
2022/04/24 03:18:26;;;;;;;10.43;9.20;;;11.00;99.90;;;10.27;100.00;95742.41;5082682;28;20052;-72
2022/04/24 03:20:53;;;;;;;11.15;9.57;;;10.90;99.90;;;10.15;100.00;95742.44;5079029;28;20135;-72
2022/04/24 03:23:20;;;;;;;12.10;8.60;;;10.90;99.90;;;10.04;100.00;95741.44;5081306;28;20493;-73
2022/04/24 03:25:47;;;;;;;11.80;10.02;;;10.80;99.90;;;9.93;100.00;95749.13;5081525;28;20094;-72
2022/04/24 03:28:14;;;;;;;13.20;10.13;;;10.80;99.90;;;9.75;100.00;95745.22;5080177;28;20519;-73
2022/04/24 03:30:41;;;;;;;12.35;9.48;;;10.70;99.90;;;9.78;100.00;95745.84;5079758;28;20052;-72
2022/04/24 03:33:09;;;;;;;11.50;9.45;;;10.60;99.90;;;9.86;100.00;95744.47;5079797;28;20052;-72
2022/04/24 03:35:37;;;;;;;11.43;9.50;;;10.60;99.90;;;9.76;100.00;95737.34;5078661;28;20135;-72
2022/04/24 03:38:04;;;;;;;12.43;8.98;;;10.60;99.90;;;9.80;100.00;95749.13;5079846;28;20505;-72
2022/04/24 03:40:31;;;;;;;10.13;7.95;;;10.60;99.90;;;9.92;100.00;95741.44;5078132;28;20068;-72
2022/04/24 03:42:57;;;;;;;11.13;9.07;;;10.70;99.90;;;9.90;100.00;95738.97;5082459;28;20053;-72
2022/04/24 03:45:25;;;;;;;9.52;8.20;;;10.60;99.90;;;9.95;100.00;95754.22;5080618;28;20138;-72
2022/04/24 03:47:52;;;;;;;10.30;8.10;;;10.60;99.90;;;9.99;100.00;95756.47;5082715;28;20067;-72
2022/04/24 03:50:19;;;;;;;11.68;8.15;;;10.70;99.90;;;10.10;100.00;95747.13;5080248;28;20106;-72
2022/04/24 03:52:47;;;;;;;9.80;7.68;;;10.70;99.90;;;10.11;100.00;95759.16;5077377;28;20058;-72
2022/04/24 03:55:14;;;;;;;10.10;7.55;;;10.80;99.90;;;10.09;100.00;95755.84;5077153;28;20127;-73
2022/04/24 03:57:41;;;;;;;12.32;8.20;;;10.80;99.90;;;10.05;100.00;95760.41;5080131;28;20719;-72
2022/04/24 04:00:08;;;;;;;10.73;8.35;;;10.70;99.90;;;10.04;100.00;95762.16;5081570;28;20075;-73
2022/04/24 04:02:46;;;;;;;13.68;8.23;;;10.70;99.90;;;9.98;100.00;95778.13;5082820;28;20127;-72
2022/04/24 04:05:16;;;;;;;9.95;8.10;;;10.80;99.90;;;9.98;100.00;95770.38;5081104;28;20421;-72
2022/04/24 04:07:44;;;;;;;9.68;7.82;;;10.70;99.90;;;9.93;100.00;95771.63;5060275;28;20151;-72
2022/04/24 04:10:11;;;;;;;11.98;8.15;;;10.70;99.90;;;9.93;100.00;95779.41;5084117;28;20518;-73
2022/04/24 04:12:38;;;;;;;11.07;8.10;;;10.70;99.90;;;9.88;100.00;95789.25;5079677;28;20138;-73
2022/04/24 04:15:07;;;;;;;10.80;9.23;;;10.70;99.90;;;9.62;100.00;95789.25;5080786;28;20056;-72
2022/04/24 04:17:34;;;;;;;10.65;9.27;;;10.50;99.90;;;9.47;100.00;95791.13;5077816;28;20076;-72
2022/04/24 04:20:01;;;;;;;10.63;8.35;;;10.50;99.90;;;9.45;100.00;95794.75;5075399;28;20475;-72
2022/04/24 04:22:28;;;;;;;12.00;8.70;;;10.30;99.90;;;9.39;100.00;95801.97;5077675;28;20076;-72
2022/04/24 04:24:55;;;;;;;12.43;9.35;;;10.30;99.90;;;9.44;100.00;95804.25;5074658;28;20047;-72
2022/04/24 04:27:25;;;;;;;9.60;8.52;;;10.20;99.90;;;9.43;100.00;95794.84;5079414;28;20051;-72
2022/04/24 04:29:53;;;;;;;11.38;8.20;;;10.20;99.90;;;9.52;100.00;95806.34;5076701;28;20091;-72
2022/04/24 04:32:20;;;;;;;9.63;7.88;;;10.20;99.90;;;9.64;100.00;95800.34;5082698;28;20075;-72
2022/04/24 04:34:47;;;;;;;10.70;8.30;;;10.30;99.90;;;9.56;100.00;95805.22;5079441;28;20669;-73
2022/04/24 04:37:14;;;;;;;9.38;7.30;;;10.30;99.90;;;9.59;100.00;95805.00;5083370;28;20138;-72
2022/04/24 04:39:41;;;;;;;11.98;10.07;;;10.30;99.90;;;9.55;100.00;95811.31;5080304;28;20186;-72
2022/04/24 04:42:08;;;;;;;10.82;8.85;;;10.30;99.90;;;9.46;100.00;95804.97;5082968;28;20561;-72
2022/04/24 04:44:35;;;;;;;14.43;10.00;;;10.30;99.90;;;9.42;100.00;95803.56;5077410;28;20048;-73
2022/04/24 04:47:04;;;;;;;12.65;10.50;;;10.20;99.90;;;9.30;100.00;95810.34;5076265;28;20055;-72
2022/04/24 04:49:32;;;;;;;13.50;9.80;;;10.10;99.90;;;9.19;100.00;95817.97;5075721;28;20059;-72
2022/04/24 04:51:59;;;;;;;11.77;10.07;;;10.10;99.90;;;9.14;100.00;95820.88;5078793;28;20091;-72
2022/04/24 04:54:26;;;;;;;12.05;9.45;;;10.00;99.90;;;9.05;100.00;95826.63;5077310;28;20055;-72
2022/04/24 04:56:53;;;;;;;11.65;9.88;;;10.00;99.90;;;9.07;100.00;95831.72;5077778;28;20048;-71
2022/04/24 04:59:20;;;;;;;13.80;9.85;;;10.00;99.90;;;9.19;100.00;95833.50;5078204;28;20052;-74
2022/04/24 05:01:47;;;;;;;13.25;10.23;;;10.00;99.90;;;9.11;100.00;95836.59;5077483;28;20055;-74
2022/04/24 05:04:15;;;;;;;11.77;10.07;;;10.00;99.90;;;9.26;100.00;95831.34;5078242;28;20052;-74
2022/04/24 05:06:41;;;;;;;10.75;7.68;;;9.90;99.90;;;9.32;100.00;95829.19;5076252;28;20068;-73
2022/04/24 05:09:09;;;;;;;10.95;8.55;;;10.00;99.90;;;9.38;100.00;95833.97;5077322;28;20080;-74
2022/04/24 05:11:39;;;;;;;9.60;8.50;;;10.10;99.90;;;9.45;100.00;95829.22;5079093;28;20071;-74
2022/04/24 05:14:06;;;;;;;11.57;8.82;;;10.10;99.90;;;9.49;100.00;95835.88;5079105;28;20064;-73
2022/04/24 05:16:33;;;;;;;13.57;9.30;;;10.20;99.90;;;9.49;100.00;95833.28;5079963;28;20462;-73
2022/04/24 05:19:00;;;;;;;9.93;8.38;;;10.20;99.90;;;9.57;100.00;95828.41;5082286;28;20051;-73
2022/04/24 05:21:27;;;;;;;9.05;7.68;;;10.30;99.90;;;9.70;100.00;95825.84;5076045;28;20106;-74
2022/04/24 05:23:54;;;;;;;9.68;8.30;;;10.30;99.90;;;9.84;100.00;95817.13;5079166;28;20048;-73
2022/04/24 05:26:21;;;;;;;9.45;7.85;;;10.40;99.90;;;9.90;100.00;95818.47;5075606;28;20072;-73
2022/04/24 05:28:48;;;;;;;8.77;6.75;;;10.50;99.90;;;9.99;100.00;95817.84;5079622;28;20127;-73
2022/04/24 05:31:15;;;;;;;9.52;8.05;;;10.50;99.90;;;10.10;100.00;95820.53;5079187;28;20099;-73
2022/04/24 05:33:43;;;;;;;10.52;9.00;;;10.60;99.90;;;10.05;100.00;95820.03;5070495;28;20055;-73
2022/04/24 05:36:11;;;;;;;8.98;7.13;;;10.60;99.90;;;10.17;100.00;95824.38;5078504;28;20123;-73
2022/04/24 05:38:38;;;;;;;8.30;7.07;;;10.70;99.90;;;10.16;100.00;95824.47;5079349;28;20123;-73
2022/04/24 05:41:05;;;;;;;8.18;7.07;;;10.80;99.90;;;10.23;100.00;95823.13;5077610;28;20128;-73
2022/04/24 05:43:32;;;;;;;9.25;6.45;;;10.70;99.90;;;10.35;100.00;95835.25;5084332;28;20052;-73
2022/04/24 05:45:59;;;;;;;7.60;6.45;;;10.80;99.90;;;10.35;100.00;95834.44;5078009;28;20037;-73
2022/04/24 05:48:26;;;;;;;9.27;7.05;;;10.90;99.90;;;10.58;100.00;95830.22;5081742;28;20048;-73
2022/04/24 05:50:53;;;;;;;8.73;6.72;;;10.90;99.90;;;10.38;100.00;95823.84;5078093;28;20134;-73
2022/04/24 05:53:21;;;;;;;11.35;6.82;;;11.00;99.90;;;10.36;100.00;95838.69;5077981;28;20071;-73
2022/04/24 05:55:47;;;;;;;9.55;7.80;;;11.00;99.90;;;10.45;100.00;95845.84;5077049;28;20127;-74
2022/04/24 05:58:14;;;;;;;8.32;7.25;;;11.00;99.90;;;10.33;100.00;95844.94;5078417;28;20072;-73
2022/04/24 06:00:41;;;;;;;9.77;7.35;;;10.90;99.90;;;10.55;100.00;95839.06;5080528;28;20123;-73
2022/04/24 06:03:08;;;;;;;7.32;6.00;;;10.90;99.90;;;10.43;100.00;95843.34;5080486;28;20075;-73
2022/04/24 06:05:35;;;;;;;6.88;5.65;;;10.90;99.90;;;10.42;100.00;95844.28;5076682;28;20052;-73
2022/04/24 06:08:03;;;;;;;9.50;6.47;;;10.90;99.90;;;10.24;100.00;95842.91;5080373;28;20517;-73
2022/04/24 06:10:30;;;;;;;9.15;6.57;;;10.90;99.90;;;10.26;100.00;95849.66;5081585;28;20519;-73
2022/04/24 06:12:57;;;;;;;9.02;7.18;;;10.90;99.90;;;10.08;100.00;95845.75;5083765;28;20055;-73
2022/04/24 06:15:26;;;;;;;13.88;8.52;;;10.80;99.90;;;9.95;100.00;95852.69;5086910;28;20087;-73
2022/04/24 06:17:57;;;;;;;10.63;7.18;;;10.70;99.90;;;9.97;100.00;95856.03;5083323;28;20135;-73
2022/04/24 06:20:27;;;;;;;10.73;7.32;;;10.70;99.90;;;9.95;100.00;95860.47;5078932;28;20040;-73
2022/04/24 06:22:58;;;;;;;8.27;7.22;;;10.70;99.90;;;9.86;100.00;95859.31;5082309;28;20044;-73
2022/04/24 06:25:31;;;;;;;8.63;7.40;;;10.70;99.90;;;9.78;100.00;95856.41;5081917;28;20046;-73
2022/04/24 06:28:00;;;;;;;10.45;8.70;;;10.70;99.90;;;9.72;100.00;95864.59;5083620;28;20076;-73
2022/04/24 06:30:30;;;;;;;10.85;7.78;;;10.60;99.90;;;9.58;100.00;95871.53;5082033;28;20048;-73
2022/04/24 06:32:57;;;;;;;10.25;7.50;;;10.50;99.90;;;9.75;100.00;95869.56;5079076;28;20173;-73
2022/04/24 06:35:25;;;;;;;8.82;7.47;;;10.50;99.90;;;9.69;100.00;95868.22;5068009;28;20147;-73
2022/04/24 06:37:54;;;;;;;12.23;8.93;;;10.60;99.90;;;9.58;100.00;95871.53;5080178;28;20059;-73
2022/04/24 06:40:24;;;;;;;10.73;7.57;;;10.50;99.90;;;9.72;100.00;95874.97;5065315;28;20036;-73
2022/04/24 06:43:00;;;;;;;9.57;8.00;;;10.50;99.90;;;9.86;100.00;95866.28;5079399;28;20064;-73
2022/04/24 06:45:40;;;;;;;13.20;9.45;;;10.50;99.90;;;9.58;100.00;95870.72;5081850;28;20130;-73
2022/04/24 06:48:16;;;;;;;10.70;8.38;;;10.40;99.90;;;9.48;100.00;95874.81;5082147;28;20594;-73
2022/04/24 06:50:46;;;;;;;12.07;9.88;;;10.30;99.90;;;9.47;100.00;95873.16;5082299;28;20052;-72
2022/04/24 06:53:20;;;;;;;11.35;8.98;;;10.30;99.90;;;9.54;100.00;95883.00;5076083;28;20048;-73
2022/04/24 06:55:49;;;;;;;10.75;7.97;;;10.20;99.90;;;9.57;100.00;95884.56;5078484;28;20086;-73
2022/04/24 06:58:18;;;;;;;10.23;8.38;;;10.30;99.90;;;9.57;100.00;95887.16;5080926;28;20135;-73
2022/04/24 07:00:47;;;;;;;12.32;10.18;;;10.30;99.90;;;9.47;100.00;95891.28;5081928;28;20067;-73
2022/04/24 07:03:35;;;;;;;11.85;10.10;;;10.30;99.90;;;9.56;100.00;95903.66;5076741;28;20045;-73
2022/04/24 07:06:03;;;;;;;11.10;9.35;;;10.30;99.90;;;9.48;100.00;95898.13;5079804;28;20131;-73
2022/04/24 07:08:31;;;;;;;14.88;11.48;;;10.30;99.90;;;9.36;100.00;95910.94;5064683;28;20140;-72
2022/04/24 07:10:58;;;;;;;14.43;11.32;;;10.30;99.90;;;9.51;100.00;95909.13;5080903;28;20221;-73
2022/04/24 07:13:25;;;;;;;14.00;10.70;;;10.20;99.90;;;9.38;100.00;95909.06;5078759;28;20044;-72
2022/04/24 07:15:52;;;;;;;12.43;8.93;;;10.20;99.90;;;9.57;100.00;95908.72;5082964;28;20044;-72
2022/04/24 07:18:20;;;;;;;13.23;9.38;;;10.20;99.90;;;9.55;100.00;95909.75;5080746;28;20083;-72
2022/04/24 07:20:48;;;;;;;11.02;9.15;;;10.20;99.90;;;9.68;100.00;95907.19;5078878;28;20139;-72
2022/04/24 07:23:15;;;;;;;10.52;9.02;;;10.20;99.90;;;9.69;100.00;95906.25;5080015;28;20131;-72
2022/04/24 07:25:46;;;;;;;13.10;10.25;;;10.30;99.90;;;9.74;100.00;95911.94;5081139;28;20040;-73
2022/04/24 07:28:16;;;;;;;13.48;9.48;;;10.40;99.90;;;9.67;100.00;95902.91;5083140;28;20059;-73
2022/04/24 07:30:43;;;;;;;11.18;9.85;;;10.40;99.90;;;9.43;100.00;95916.56;5078646;28;20102;-73
2022/04/24 07:33:11;;;;;;;11.27;9.90;;;10.50;99.90;;;9.57;100.00;95916.47;5082205;28;20056;-73
2022/04/24 07:35:40;;;;;;;10.10;8.65;;;10.60;99.90;;;9.59;100.00;95914.63;5078262;28;20559;-73
2022/04/24 07:38:07;;;;;;;11.38;9.35;;;10.50;99.90;;;9.62;100.00;95913.59;5084185;28;20179;-73
2022/04/24 07:40:36;;;;;;;14.50;10.98;;;10.50;99.90;;;9.46;100.00;95921.53;5080808;28;20056;-72
2022/04/24 07:43:06;;;;;;;17.63;10.77;;;10.50;99.90;;;9.51;100.00;95921.22;5083505;28;20052;-72
2022/04/24 07:45:40;;;;;;;12.85;11.10;;;10.50;99.90;;;9.64;100.00;95928.09;5080288;28;20056;-72
2022/04/24 07:48:11;;;;;;;14.40;10.35;;;10.40;99.90;;;9.53;100.00;95932.31;5063013;28;20454;-72
2022/04/24 07:50:44;;;;;;;14.10;10.65;;;10.50;99.90;;;9.52;100.00;95928.09;5080865;28;20079;-72
2022/04/24 07:53:14;;;;;;;12.93;9.43;;;10.50;99.90;;;9.61;100.00;95922.31;5079772;28;20523;-72
2022/04/24 07:55:43;;;;;;;11.75;9.35;;;10.50;99.90;;;9.84;100.00;95913.84;5060928;28;20040;-72
2022/04/24 07:58:12;;;;;;;10.95;9.05;;;10.50;99.90;;;9.76;100.00;95920.44;5080639;28;20545;-72
2022/04/24 08:00:40;;;;;;;10.20;8.57;;;10.50;99.90;;;10.01;100.00;95910.13;5078436;28;20044;-72
2022/04/24 08:03:09;;;;;;;10.43;9.18;;;10.50;99.90;;;9.85;100.00;95901.69;5081894;28;20135;-72
2022/04/24 08:05:46;;;;;;;11.27;7.97;;;10.60;99.90;;;9.87;100.00;95907.63;5078314;28;20638;-72
2022/04/24 08:08:20;;;;;;;8.95;7.20;;;10.60;99.90;;;10.08;100.00;95905.38;5078874;28;20041;-72
2022/04/24 08:10:51;;;;;;;11.30;7.78;;;10.80;99.90;;;10.02;100.00;95903.19;5080110;28;20048;-72
2022/04/24 08:13:19;;;;;;;11.20;8.18;;;10.90;99.90;;;10.21;100.00;95902.75;5084234;28;20045;-71
2022/04/24 08:15:47;;;;;;;11.68;7.82;;;11.00;99.90;;;10.24;100.00;95899.94;5072203;28;20080;-74
2022/04/24 08:18:16;;;;;;;12.27;8.40;;;11.00;99.90;;;10.29;100.00;95899.69;5076001;28;20044;-71
2022/04/24 08:20:44;;;;;;;9.93;7.80;;;11.10;99.90;;;10.21;100.00;95898.41;5074935;28;20085;-72
2022/04/24 08:23:12;;;;;;;8.52;6.65;;;11.10;99.90;;;10.42;100.00;95895.31;5079554;28;20134;-72
2022/04/24 08:25:40;;;;;;;10.82;8.15;;;11.10;99.90;;;10.39;100.00;95898.94;5077229;28;20060;-74
2022/04/24 08:28:10;;;;;;;9.38;7.28;;;11.10;99.90;;;10.40;100.00;95904.97;5082355;28;20049;-73
2022/04/24 08:30:41;;;;;;;10.27;7.65;;;11.10;99.90;;;10.31;100.00;95909.03;5084124;28;20102;-73
2022/04/24 08:33:10;;;;;;;9.60;7.00;;;11.20;99.90;;;10.57;100.00;95909.81;5077267;28;20056;-73
2022/04/24 08:35:37;;;;;;;9.82;7.53;;;11.30;99.90;;;10.46;100.00;95905.38;5077173;28;20109;-72
2022/04/24 08:38:05;;;;;;;10.00;7.88;;;11.40;99.90;;;10.58;100.00;95903.72;5077795;28;20040;-73
2022/04/24 08:40:32;;;;;;;10.85;7.68;;;11.40;99.90;;;10.56;100.00;95907.31;5077683;28;20102;-74
2022/04/24 08:43:00;;;;;;;10.45;7.97;;;11.40;99.90;;;10.39;100.00;95911.91;5082941;28;20134;-73
2022/04/24 08:45:31;;;;;;;10.77;7.60;;;11.40;99.90;;;10.76;100.00;95909.38;5074798;28;20135;-73
2022/04/24 08:47:59;;;;;;;8.73;7.10;;;11.40;99.90;;;11.08;100.00;95914.91;5072502;28;20049;-73
2022/04/24 08:50:30;;;;;;;9.45;8.05;;;11.60;99.90;;;11.08;100.00;95917.50;5084978;28;20596;-73
2022/04/24 08:52:57;;;;;;;8.70;7.03;;;11.60;99.90;;;11.30;100.00;95919.38;5080008;28;20544;-73
2022/04/24 08:55:30;;;;;;;9.52;6.90;;;11.70;99.90;;;11.50;100.00;95909.31;5080948;28;20048;-74
2022/04/24 08:57:57;;;;;;;;;;;11.80;99.90;;;11.32;100.00;95910.66;5078223;28;20052;-73
2022/04/24 09:00:27;;;;;;;9.05;6.97;;;11.90;99.90;;;11.49;100.00;95911.09;5079915;28;20010;-73
2022/04/24 09:02:57;;;;;;;9.50;7.43;;;12.10;99.90;;;11.67;100.00;95903.69;5081269;28;20498;-73
2022/04/24 09:05:28;;;;;;;9.07;7.70;;;12.20;99.90;;;11.61;100.00;95909.38;5079825;28;20048;-73
2022/04/24 09:08:14;;;;;;;11.18;8.25;;;12.30;99.90;;;11.38;100.00;95903.25;5081741;28;20067;-73
2022/04/24 09:11:02;;;;;;;9.88;7.57;;;12.20;99.90;;;11.48;100.00;95896.44;5078223;28;20080;-73
2022/04/24 09:16:36;;;;;;;10.30;8.38;;;12.10;99.90;;;10.59;100.00;95914.91;5079460;28;20040;-73
2022/04/24 09:19:19;;;;;;;9.25;7.57;;;12.00;99.90;;;11.19;100.00;95913.28;5079861;28;20055;-73
2022/04/24 09:22:00;;;;;;;;;;;11.80;99.90;;;11.41;100.00;95912.59;5076694;28;20127;-73
2022/04/24 09:24:52;;;;;;;8.73;7.00;;;12.00;99.90;;;11.77;100.00;95910.81;5082176;28;20018;-73
2022/04/24 09:27:34;;;;;;;8.77;6.63;;;12.20;99.90;;;11.71;100.00;95917.31;5083437;28;20676;-73
2022/04/24 09:30:04;;;;;;;7.85;6.15;;;12.30;99.90;;;11.97;100.00;95912.78;5079344;28;20127;-74
2022/04/24 09:32:51;;;;;;;8.60;6.63;;;12.40;99.90;;;11.72;100.00;95924.16;5076294;28;20131;-73
2022/04/24 09:35:32;;;;;;;12.98;8.02;;;12.40;99.90;;;11.29;100.00;95929.88;5080022;28;20135;-73
2022/04/24 09:38:17;;;;;;;10.45;8.52;;;12.40;99.90;;;11.25;100.00;95939.66;5073982;28;20052;-74
2022/04/24 09:40:48;;;;;;;9.05;6.70;;;12.20;99.90;;;11.07;100.00;95939.19;5079455;28;20048;-73
2022/04/24 09:43:19;;;;;;;10.40;8.05;;;12.20;99.90;;;10.82;100.00;95944.44;5081579;28;20076;-72
2022/04/24 09:45:55;;;;;;;11.85;7.38;;;12.20;99.90;;;10.82;100.00;95936.66;5081839;28;20072;-73
2022/04/24 09:48:25;;;;;;;10.57;8.18;;;12.10;99.90;;;10.75;100.00;95945.81;5083366;28;20250;-73
2022/04/24 09:50:54;;;;;;;9.60;6.95;;;12.00;99.90;;;11.02;100.00;95948.25;5083566;28;20067;-74
2022/04/24 09:53:22;;;;;;;12.25;8.95;;;11.90;99.90;;;10.99;100.00;95941.53;5082907;28;20044;-73
2022/04/24 09:55:50;;;;;;;10.48;8.07;;;12.00;99.90;;;10.90;100.00;95949.91;5079945;28;20733;-73
2022/04/24 09:58:18;;;;;;;10.02;8.48;;;12.00;99.90;;;10.86;100.00;95951.09;5081090;28;20475;-73
2022/04/24 10:00:45;;;;;;;11.13;8.40;;;12.00;99.90;;;11.00;100.00;95950.13;5084073;28;20115;-73
2022/04/24 10:03:16;;;;;;;9.32;7.90;;;11.90;99.90;;;11.22;100.00;95952.88;5080479;28;20051;-73
2022/04/24 10:05:47;;;;;;;9.68;7.40;;;12.10;99.90;;;11.51;100.00;95945.56;5082817;28;20079;-74
2022/04/24 10:08:18;;;;;;;10.10;7.38;;;12.20;99.90;;;11.40;100.00;95957.69;5083738;28;20048;-73
2022/04/24 10:10:50;;;;;;;8.88;6.78;;;12.30;99.90;;;11.56;100.00;95952.19;5082997;28;20056;-73
2022/04/24 10:13:21;;;;;;;9.38;7.22;;;12.40;99.90;;;11.42;100.00;95951.44;5080250;28;20450;-73
2022/04/24 10:16:14;;;;;;;12.00;7.53;;;12.40;99.90;;;11.46;100.00;95941.66;5083554;28;20522;-73
2022/04/24 10:19:07;;;;;;;10.43;7.35;;;12.40;99.90;;;11.55;100.00;95956.56;5080825;28;20052;-73
2022/04/24 10:22:19;;;;;;;9.20;6.95;;;12.50;99.90;;;11.77;100.00;95955.00;5083241;28;20048;-73